sensor_id;sensor_type;location;lat;lon;timestamp;P1;durP1;ratioP1;P2;durP2;ratioP2
25952;SDS011;13750;50.804;8.764;2022-09-09T00:04:28;0.93;;;0.73;;
25952;SDS011;13750;50.804;8.764;2022-09-09T00:07:00;0.43;;;0.40;;
25952;SDS011;13750;50.804;8.764;2022-09-09T00:09:52;0.80;;;0.50;;
25952;SDS011;13750;50.804;8.764;2022-09-09T00:12:25;0.60;;;0.40;;
25952;SDS011;13750;50.804;8.764;2022-09-09T00:14:59;0.80;;;0.70;;
25952;SDS011;13750;50.804;8.764;2022-09-09T00:17:44;0.60;;;0.60;;
25952;SDS011;13750;50.804;8.764;2022-09-09T00:25:47;0.70;;;0.43;;
25952;SDS011;13750;50.804;8.764;2022-09-09T00:28:33;0.40;;;0.40;;
25952;SDS011;13750;50.804;8.764;2022-09-09T00:31:11;0.60;;;0.40;;
25952;SDS011;13750;50.804;8.764;2022-09-09T00:33:45;0.40;;;0.40;;
25952;SDS011;13750;50.804;8.764;2022-09-09T00:36:14;0.88;;;0.40;;
25952;SDS011;13750;50.804;8.764;2022-09-09T00:38:45;0.30;;;0.30;;
25952;SDS011;13750;50.804;8.764;2022-09-09T00:44:20;1.00;;;0.50;;
25952;SDS011;13750;50.804;8.764;2022-09-09T00:46:53;0.40;;;0.40;;
25952;SDS011;13750;50.804;8.764;2022-09-09T00:52:25;0.40;;;0.40;;
25952;SDS011;13750;50.804;8.764;2022-09-09T00:57:46;0.40;;;0.40;;
25952;SDS011;13750;50.804;8.764;2022-09-09T01:05:50;0.95;;;0.40;;
25952;SDS011;13750;50.804;8.764;2022-09-09T01:11:01;0.55;;;0.50;;
25952;SDS011;13750;50.804;8.764;2022-09-09T01:13:28;0.80;;;0.50;;
25952;SDS011;13750;50.804;8.764;2022-09-09T01:16:00;0.50;;;0.50;;
25952;SDS011;13750;50.804;8.764;2022-09-09T01:18:29;0.90;;;0.50;;
25952;SDS011;13750;50.804;8.764;2022-09-09T01:21:19;0.40;;;0.32;;
25952;SDS011;13750;50.804;8.764;2022-09-09T01:26:42;0.52;;;0.40;;
25952;SDS011;13750;50.804;8.764;2022-09-09T01:29:11;0.60;;;0.50;;
25952;SDS011;13750;50.804;8.764;2022-09-09T01:31:40;1.10;;;0.50;;
25952;SDS011;13750;50.804;8.764;2022-09-09T01:34:24;1.42;;;0.88;;
25952;SDS011;13750;50.804;8.764;2022-09-09T01:37:08;0.47;;;0.47;;
25952;SDS011;13750;50.804;8.764;2022-09-09T01:39:37;0.45;;;0.45;;
25952;SDS011;13750;50.804;8.764;2022-09-09T01:42:06;0.50;;;0.50;;
25952;SDS011;13750;50.804;8.764;2022-09-09T01:44:34;0.77;;;0.50;;
25952;SDS011;13750;50.804;8.764;2022-09-09T01:47:04;0.85;;;0.50;;
25952;SDS011;13750;50.804;8.764;2022-09-09T01:49:31;0.75;;;0.55;;
25952;SDS011;13750;50.804;8.764;2022-09-09T01:51:58;0.40;;;0.40;;
25952;SDS011;13750;50.804;8.764;2022-09-09T02:02:22;0.52;;;0.50;;
25952;SDS011;13750;50.804;8.764;2022-09-09T02:07:39;0.52;;;0.52;;
25952;SDS011;13750;50.804;8.764;2022-09-09T02:10:17;0.77;;;0.40;;
25952;SDS011;13750;50.804;8.764;2022-09-09T02:12:47;0.68;;;0.35;;
25952;SDS011;13750;50.804;8.764;2022-09-09T02:15:24;0.40;;;0.40;;
25952;SDS011;13750;50.804;8.764;2022-09-09T02:17:55;0.50;;;0.50;;
25952;SDS011;13750;50.804;8.764;2022-09-09T02:20:24;0.40;;;0.40;;
25952;SDS011;13750;50.804;8.764;2022-09-09T02:22:52;0.57;;;0.50;;
25952;SDS011;13750;50.804;8.764;2022-09-09T02:25:19;0.60;;;0.43;;
25952;SDS011;13750;50.804;8.764;2022-09-09T02:27:48;0.77;;;0.60;;
25952;SDS011;13750;50.804;8.764;2022-09-09T02:30:16;0.93;;;0.50;;
25952;SDS011;13750;50.804;8.764;2022-09-09T02:35:11;0.75;;;0.60;;
25952;SDS011;13750;50.804;8.764;2022-09-09T02:37:39;0.55;;;0.47;;
25952;SDS011;13750;50.804;8.764;2022-09-09T02:40:07;1.63;;;0.60;;
25952;SDS011;13750;50.804;8.764;2022-09-09T02:42:48;0.60;;;0.60;;
25952;SDS011;13750;50.804;8.764;2022-09-09T02:45:25;0.88;;;0.60;;
25952;SDS011;13750;50.804;8.764;2022-09-09T02:53:30;0.55;;;0.55;;
25952;SDS011;13750;50.804;8.764;2022-09-09T02:56:04;0.93;;;0.50;;
25952;SDS011;13750;50.804;8.764;2022-09-09T02:58:40;1.08;;;0.80;;
25952;SDS011;13750;50.804;8.764;2022-09-09T03:01:06;0.77;;;0.63;;
25952;SDS011;13750;50.804;8.764;2022-09-09T03:03:33;0.82;;;0.40;;
25952;SDS011;13750;50.804;8.764;2022-09-09T03:06:00;0.50;;;0.50;;
25952;SDS011;13750;50.804;8.764;2022-09-09T03:08:26;0.47;;;0.40;;
25952;SDS011;13750;50.804;8.764;2022-09-09T03:10:53;0.40;;;0.40;;
25952;SDS011;13750;50.804;8.764;2022-09-09T03:13:20;0.40;;;0.40;;
25952;SDS011;13750;50.804;8.764;2022-09-09T03:15:45;0.30;;;0.30;;
25952;SDS011;13750;50.804;8.764;2022-09-09T03:18:13;0.40;;;0.40;;
25952;SDS011;13750;50.804;8.764;2022-09-09T03:20:39;0.30;;;0.30;;
25952;SDS011;13750;50.804;8.764;2022-09-09T03:23:07;0.45;;;0.38;;
25952;SDS011;13750;50.804;8.764;2022-09-09T03:25:32;0.40;;;0.30;;
25952;SDS011;13750;50.804;8.764;2022-09-09T03:27:58;0.83;;;0.60;;
25952;SDS011;13750;50.804;8.764;2022-09-09T03:30:25;0.83;;;0.50;;
25952;SDS011;13750;50.804;8.764;2022-09-09T03:32:52;0.77;;;0.50;;
25952;SDS011;13750;50.804;8.764;2022-09-09T03:35:18;1.23;;;0.70;;
25952;SDS011;13750;50.804;8.764;2022-09-09T03:37:44;0.50;;;0.50;;
25952;SDS011;13750;50.804;8.764;2022-09-09T03:40:10;0.82;;;0.50;;
25952;SDS011;13750;50.804;8.764;2022-09-09T03:42:36;0.32;;;0.32;;
25952;SDS011;13750;50.804;8.764;2022-09-09T03:45:03;0.40;;;0.40;;
25952;SDS011;13750;50.804;8.764;2022-09-09T03:47:34;0.40;;;0.35;;
25952;SDS011;13750;50.804;8.764;2022-09-09T03:50:00;0.70;;;0.60;;
25952;SDS011;13750;50.804;8.764;2022-09-09T03:52:25;0.70;;;0.70;;
25952;SDS011;13750;50.804;8.764;2022-09-09T03:54:52;0.60;;;0.60;;
25952;SDS011;13750;50.804;8.764;2022-09-09T03:57:18;0.60;;;0.60;;
25952;SDS011;13750;50.804;8.764;2022-09-09T03:59:44;0.70;;;0.50;;
25952;SDS011;13750;50.804;8.764;2022-09-09T04:02:10;0.57;;;0.50;;
25952;SDS011;13750;50.804;8.764;2022-09-09T04:04:36;0.70;;;0.43;;
25952;SDS011;13750;50.804;8.764;2022-09-09T04:07:01;0.50;;;0.50;;
25952;SDS011;13750;50.804;8.764;2022-09-09T04:09:27;0.93;;;0.45;;
25952;SDS011;13750;50.804;8.764;2022-09-09T04:11:53;0.50;;;0.50;;
25952;SDS011;13750;50.804;8.764;2022-09-09T04:14:19;0.68;;;0.50;;
25952;SDS011;13750;50.804;8.764;2022-09-09T04:16:45;0.50;;;0.50;;
25952;SDS011;13750;50.804;8.764;2022-09-09T04:19:11;0.50;;;0.50;;
25952;SDS011;13750;50.804;8.764;2022-09-09T04:21:39;0.57;;;0.47;;
25952;SDS011;13750;50.804;8.764;2022-09-09T04:24:06;0.47;;;0.43;;
25952;SDS011;13750;50.804;8.764;2022-09-09T04:26:36;0.47;;;0.45;;
25952;SDS011;13750;50.804;8.764;2022-09-09T04:29:02;0.65;;;0.57;;
25952;SDS011;13750;50.804;8.764;2022-09-09T04:33:55;0.80;;;0.70;;
25952;SDS011;13750;50.804;8.764;2022-09-09T04:36:20;0.63;;;0.50;;
25952;SDS011;13750;50.804;8.764;2022-09-09T04:38:46;0.50;;;0.50;;
25952;SDS011;13750;50.804;8.764;2022-09-09T04:41:14;0.85;;;0.50;;
25952;SDS011;13750;50.804;8.764;2022-09-09T04:43:40;0.60;;;0.43;;
25952;SDS011;13750;50.804;8.764;2022-09-09T04:46:06;0.40;;;0.40;;
25952;SDS011;13750;50.804;8.764;2022-09-09T04:48:31;1.40;;;1.30;;
25952;SDS011;13750;50.804;8.764;2022-09-09T04:50:58;2.42;;;1.80;;
25952;SDS011;13750;50.804;8.764;2022-09-09T04:53:29;1.80;;;1.30;;
25952;SDS011;13750;50.804;8.764;2022-09-09T04:56:14;1.43;;;1.03;;
25952;SDS011;13750;50.804;8.764;2022-09-09T04:58:40;1.58;;;1.10;;
25952;SDS011;13750;50.804;8.764;2022-09-09T05:03:49;0.70;;;0.70;;
25952;SDS011;13750;50.804;8.764;2022-09-09T05:06:16;0.70;;;0.70;;
25952;SDS011;13750;50.804;8.764;2022-09-09T05:08:43;0.68;;;0.52;;
25952;SDS011;13750;50.804;8.764;2022-09-09T05:13:39;0.60;;;0.60;;
25952;SDS011;13750;50.804;8.764;2022-09-09T05:16:05;0.77;;;0.70;;
25952;SDS011;13750;50.804;8.764;2022-09-09T05:18:30;0.43;;;0.43;;
25952;SDS011;13750;50.804;8.764;2022-09-09T05:20:59;0.50;;;0.50;;
25952;SDS011;13750;50.804;8.764;2022-09-09T05:23:28;0.75;;;0.55;;
25952;SDS011;13750;50.804;8.764;2022-09-09T05:25:57;0.40;;;0.40;;
25952;SDS011;13750;50.804;8.764;2022-09-09T05:28:26;0.70;;;0.43;;
25952;SDS011;13750;50.804;8.764;2022-09-09T05:30:56;0.52;;;0.43;;
25952;SDS011;13750;50.804;8.764;2022-09-09T05:33:23;0.47;;;0.47;;
25952;SDS011;13750;50.804;8.764;2022-09-09T05:35:57;0.65;;;0.50;;
25952;SDS011;13750;50.804;8.764;2022-09-09T05:38:27;0.60;;;0.60;;
25952;SDS011;13750;50.804;8.764;2022-09-09T05:40:53;0.60;;;0.40;;
25952;SDS011;13750;50.804;8.764;2022-09-09T05:43:20;0.60;;;0.50;;
25952;SDS011;13750;50.804;8.764;2022-09-09T05:45:46;0.50;;;0.50;;
25952;SDS011;13750;50.804;8.764;2022-09-09T05:48:12;0.30;;;0.30;;
25952;SDS011;13750;50.804;8.764;2022-09-09T05:50:40;0.45;;;0.40;;
25952;SDS011;13750;50.804;8.764;2022-09-09T05:53:06;0.65;;;0.43;;
25952;SDS011;13750;50.804;8.764;2022-09-09T05:55:31;0.87;;;0.43;;
25952;SDS011;13750;50.804;8.764;2022-09-09T05:57:57;0.50;;;0.50;;
25952;SDS011;13750;50.804;8.764;2022-09-09T06:00:23;0.50;;;0.50;;
25952;SDS011;13750;50.804;8.764;2022-09-09T06:02:51;0.40;;;0.40;;
25952;SDS011;13750;50.804;8.764;2022-09-09T06:05:18;0.40;;;0.40;;
25952;SDS011;13750;50.804;8.764;2022-09-09T06:07:44;0.40;;;0.40;;
25952;SDS011;13750;50.804;8.764;2022-09-09T06:10:10;0.35;;;0.35;;
25952;SDS011;13750;50.804;8.764;2022-09-09T06:12:38;0.70;;;0.50;;
25952;SDS011;13750;50.804;8.764;2022-09-09T06:15:04;0.60;;;0.50;;
25952;SDS011;13750;50.804;8.764;2022-09-09T06:17:30;0.50;;;0.50;;
25952;SDS011;13750;50.804;8.764;2022-09-09T06:19:56;0.50;;;0.50;;
25952;SDS011;13750;50.804;8.764;2022-09-09T06:22:22;0.30;;;0.30;;
25952;SDS011;13750;50.804;8.764;2022-09-09T06:24:47;0.73;;;0.40;;
25952;SDS011;13750;50.804;8.764;2022-09-09T06:27:13;0.50;;;0.40;;
25952;SDS011;13750;50.804;8.764;2022-09-09T06:29:39;0.40;;;0.40;;
25952;SDS011;13750;50.804;8.764;2022-09-09T06:32:05;0.90;;;0.50;;
25952;SDS011;13750;50.804;8.764;2022-09-09T06:34:34;1.30;;;0.30;;
25952;SDS011;13750;50.804;8.764;2022-09-09T06:37:01;0.88;;;0.60;;
25952;SDS011;13750;50.804;8.764;2022-09-09T06:39:27;0.53;;;0.40;;
25952;SDS011;13750;50.804;8.764;2022-09-09T06:41:52;1.03;;;0.80;;
25952;SDS011;13750;50.804;8.764;2022-09-09T06:44:18;0.50;;;0.50;;
25952;SDS011;13750;50.804;8.764;2022-09-09T06:46:45;0.47;;;0.43;;
25952;SDS011;13750;50.804;8.764;2022-09-09T06:49:12;0.60;;;0.60;;
25952;SDS011;13750;50.804;8.764;2022-09-09T06:51:39;0.45;;;0.45;;
25952;SDS011;13750;50.804;8.764;2022-09-09T06:54:07;0.40;;;0.30;;
25952;SDS011;13750;50.804;8.764;2022-09-09T06:59:02;0.60;;;0.60;;
25952;SDS011;13750;50.804;8.764;2022-09-09T07:01:31;0.88;;;0.50;;
25952;SDS011;13750;50.804;8.764;2022-09-09T07:04:01;0.43;;;0.43;;
25952;SDS011;13750;50.804;8.764;2022-09-09T07:06:30;0.43;;;0.40;;
25952;SDS011;13750;50.804;8.764;2022-09-09T07:09:04;0.75;;;0.57;;
25952;SDS011;13750;50.804;8.764;2022-09-09T07:11:41;0.47;;;0.38;;
25952;SDS011;13750;50.804;8.764;2022-09-09T07:16:41;0.40;;;0.40;;
25952;SDS011;13750;50.804;8.764;2022-09-09T07:19:07;0.70;;;0.60;;
25952;SDS011;13750;50.804;8.764;2022-09-09T07:21:33;1.05;;;0.40;;
25952;SDS011;13750;50.804;8.764;2022-09-09T07:24:00;0.35;;;0.30;;
25952;SDS011;13750;50.804;8.764;2022-09-09T07:28:53;0.50;;;0.50;;
25952;SDS011;13750;50.804;8.764;2022-09-09T07:31:24;0.50;;;0.50;;
25952;SDS011;13750;50.804;8.764;2022-09-09T07:33:52;0.40;;;0.40;;
25952;SDS011;13750;50.804;8.764;2022-09-09T07:36:19;1.10;;;0.60;;
25952;SDS011;13750;50.804;8.764;2022-09-09T07:38:50;0.57;;;0.50;;
25952;SDS011;13750;50.804;8.764;2022-09-09T07:41:19;0.57;;;0.50;;
25952;SDS011;13750;50.804;8.764;2022-09-09T07:43:53;0.57;;;0.57;;
25952;SDS011;13750;50.804;8.764;2022-09-09T07:46:19;0.60;;;0.50;;
25952;SDS011;13750;50.804;8.764;2022-09-09T07:48:51;0.50;;;0.40;;
25952;SDS011;13750;50.804;8.764;2022-09-09T07:51:31;1.13;;;0.60;;
25952;SDS011;13750;50.804;8.764;2022-09-09T07:54:00;1.10;;;1.00;;
25952;SDS011;13750;50.804;8.764;2022-09-09T07:56:27;1.33;;;1.23;;
25952;SDS011;13750;50.804;8.764;2022-09-09T07:58:55;1.20;;;1.10;;
25952;SDS011;13750;50.804;8.764;2022-09-09T08:06:29;1.25;;;1.10;;
25952;SDS011;13750;50.804;8.764;2022-09-09T08:08:56;1.20;;;1.10;;
25952;SDS011;13750;50.804;8.764;2022-09-09T08:11:22;0.80;;;0.70;;
25952;SDS011;13750;50.804;8.764;2022-09-09T08:13:50;1.10;;;1.00;;
25952;SDS011;13750;50.804;8.764;2022-09-09T08:18:44;1.33;;;1.20;;
25952;SDS011;13750;50.804;8.764;2022-09-09T08:21:14;1.10;;;0.90;;
25952;SDS011;13750;50.804;8.764;2022-09-09T08:23:42;1.38;;;1.00;;
25952;SDS011;13750;50.804;8.764;2022-09-09T08:26:17;1.13;;;1.02;;
25952;SDS011;13750;50.804;8.764;2022-09-09T08:28:48;0.95;;;0.70;;
25952;SDS011;13750;50.804;8.764;2022-09-09T08:31:32;1.23;;;1.10;;
25952;SDS011;13750;50.804;8.764;2022-09-09T08:34:05;2.15;;;1.23;;
25952;SDS011;13750;50.804;8.764;2022-09-09T08:38:59;0.98;;;0.90;;
25952;SDS011;13750;50.804;8.764;2022-09-09T08:52:31;2.65;;;2.08;;
25952;SDS011;13750;50.804;8.764;2022-09-09T08:55:22;3.85;;;1.75;;
25952;SDS011;13750;50.804;8.764;2022-09-09T08:57:56;2.10;;;1.60;;
